createdAt,value
2022-07-26T00:02:07.123Z,0.30
2022-07-26T00:04:34.084Z,0.30
2022-07-26T00:07:00.896Z,0.38
2022-07-26T00:09:27.811Z,0.40
2022-07-26T00:11:54.668Z,0.70
2022-07-26T00:14:21.513Z,0.40
2022-07-26T00:16:48.439Z,0.20
2022-07-26T00:19:15.381Z,0.35
2022-07-26T00:21:42.176Z,0.30
2022-07-26T00:24:09.174Z,0.30
2022-07-26T00:26:36.131Z,0.22
2022-07-26T00:29:04.733Z,0.43
2022-07-26T00:31:32.223Z,0.30
2022-07-26T00:33:59.211Z,0.40
2022-07-26T00:36:27.629Z,0.30
2022-07-26T00:38:54.581Z,0.30
2022-07-26T00:41:21.543Z,0.30
2022-07-26T00:44:00.290Z,0.28
2022-07-26T00:46:27.465Z,0.47
2022-07-26T00:48:54.574Z,0.30
2022-07-26T00:51:21.618Z,0.43
2022-07-26T00:53:48.781Z,0.40
2022-07-26T00:56:16.034Z,0.35
2022-07-26T00:58:43.380Z,0.30
2022-07-26T01:01:11.703Z,0.40
2022-07-26T01:03:39.830Z,0.50
2022-07-26T01:06:07.087Z,0.30
2022-07-26T01:08:34.153Z,0.35
2022-07-26T01:11:01.035Z,0.40
2022-07-26T01:13:31.866Z,0.50
2022-07-26T01:16:01.615Z,0.30
2022-07-26T01:18:28.431Z,0.30
2022-07-26T01:20:55.255Z,0.73
2022-07-26T01:23:22.266Z,0.60
2022-07-26T01:25:49.133Z,0.38
2022-07-26T01:28:20.283Z,0.30
2022-07-26T01:30:48.718Z,0.60
2022-07-26T01:33:15.672Z,0.30
2022-07-26T01:35:42.594Z,0.40
2022-07-26T01:38:09.320Z,0.50
2022-07-26T01:40:36.228Z,0.50
2022-07-26T01:43:03.105Z,0.40
2022-07-26T01:45:30.073Z,0.50
2022-07-26T01:47:57.017Z,0.40
2022-07-26T01:50:23.943Z,0.38
2022-07-26T01:52:50.834Z,0.50
2022-07-26T01:55:17.772Z,0.50
2022-07-26T01:57:47.813Z,0.60
2022-07-26T02:00:15.334Z,0.40
2022-07-26T02:02:42.266Z,0.50
2022-07-26T02:05:09.539Z,0.40
2022-07-26T02:07:42.769Z,0.40
2022-07-26T02:10:12.633Z,0.40
2022-07-26T02:12:40.045Z,0.40
2022-07-26T02:15:07.526Z,0.30
2022-07-26T02:17:34.717Z,0.60
2022-07-26T02:20:01.688Z,0.40
2022-07-26T02:22:28.484Z,0.52
2022-07-26T02:24:55.332Z,0.50
2022-07-26T02:27:22.380Z,0.60
2022-07-26T02:29:49.250Z,0.40
2022-07-26T02:32:16.147Z,0.40
2022-07-26T02:34:42.866Z,0.40
2022-07-26T02:37:09.647Z,0.50
2022-07-26T02:39:36.538Z,0.60
2022-07-26T02:42:03.506Z,0.60
2022-07-26T02:44:30.643Z,0.65
2022-07-26T02:46:57.531Z,0.40
2022-07-26T02:49:24.334Z,0.52
2022-07-26T02:52:06.472Z,0.50
2022-07-26T02:54:33.285Z,0.30
2022-07-26T02:57:00.063Z,0.47
2022-07-26T02:59:26.799Z,0.38
2022-07-26T03:01:53.774Z,0.60
2022-07-26T03:04:20.754Z,0.65
2022-07-26T03:06:47.730Z,0.77
2022-07-26T03:09:14.559Z,0.68
2022-07-26T03:11:41.274Z,0.80
2022-07-26T03:14:09.498Z,0.90
2022-07-26T03:16:36.893Z,0.85
2022-07-26T03:19:03.650Z,0.77
2022-07-26T03:21:30.502Z,0.50
2022-07-26T03:23:57.302Z,0.70
2022-07-26T03:26:24.094Z,0.65
2022-07-26T03:28:50.901Z,0.60
2022-07-26T03:31:17.823Z,0.60
2022-07-26T03:33:44.640Z,0.50
2022-07-26T03:36:15.712Z,0.65
2022-07-26T03:38:43.133Z,0.70
2022-07-26T03:41:12.279Z,0.73
2022-07-26T03:43:40.813Z,0.55
2022-07-26T03:46:07.701Z,0.77
2022-07-26T03:48:36.994Z,0.60
2022-07-26T03:51:04.062Z,0.57
2022-07-26T03:53:31.023Z,0.70
2022-07-26T03:56:17.667Z,0.70
2022-07-26T03:58:44.577Z,0.60
2022-07-26T04:01:11.618Z,0.60
2022-07-26T04:03:38.485Z,0.70
2022-07-26T04:06:06.082Z,0.77
2022-07-26T04:08:32.878Z,0.70
2022-07-26T04:10:59.718Z,0.98
2022-07-26T04:13:26.680Z,0.73
2022-07-26T04:15:53.654Z,0.60
2022-07-26T04:18:20.495Z,0.80
2022-07-26T04:20:51.309Z,0.70
2022-07-26T04:23:18.869Z,0.60
2022-07-26T04:25:45.688Z,0.80
2022-07-26T04:28:12.728Z,0.70
2022-07-26T04:30:40.069Z,0.82
2022-07-26T04:33:06.962Z,0.50
2022-07-26T04:35:33.794Z,0.60
2022-07-26T04:38:01.978Z,0.70
2022-07-26T04:40:33.402Z,0.60
2022-07-26T04:43:01.396Z,0.52
2022-07-26T04:45:28.718Z,0.80
2022-07-26T04:47:55.695Z,0.50
2022-07-26T04:50:22.863Z,0.63
2022-07-26T04:52:50.286Z,0.50
2022-07-26T04:55:17.728Z,0.60
2022-07-26T04:57:44.710Z,0.45
2022-07-26T05:00:23.865Z,0.50
2022-07-26T05:02:55.814Z,0.70
2022-07-26T05:05:23.203Z,0.70
2022-07-26T05:07:51.789Z,0.68
2022-07-26T05:10:19.003Z,0.68
2022-07-26T05:12:46.686Z,0.77
2022-07-26T05:15:14.396Z,0.52
2022-07-26T05:17:44.914Z,0.60
2022-07-26T05:20:15.245Z,0.80
2022-07-26T05:22:42.194Z,0.90
2022-07-26T05:25:09.277Z,0.55
2022-07-26T05:27:36.087Z,0.60
2022-07-26T05:30:03.026Z,0.60
2022-07-26T05:32:29.956Z,0.50
2022-07-26T05:34:56.810Z,0.68
2022-07-26T05:37:23.668Z,0.73
2022-07-26T05:39:50.507Z,0.60
2022-07-26T05:42:17.287Z,0.60
2022-07-26T05:44:44.075Z,0.68
2022-07-26T05:47:11.587Z,0.60
2022-07-26T05:49:39.708Z,0.60
2022-07-26T05:52:10.142Z,0.75
2022-07-26T05:54:37.142Z,0.70
2022-07-26T05:57:04.443Z,0.68
2022-07-26T05:59:31.675Z,0.47
2022-07-26T06:01:58.593Z,0.43
2022-07-26T06:04:26.100Z,0.40
2022-07-26T06:06:54.824Z,0.43
2022-07-26T06:09:24.130Z,0.32
2022-07-26T06:11:51.453Z,0.50
2022-07-26T06:14:18.737Z,0.45
2022-07-26T06:16:49.506Z,0.80
2022-07-26T06:19:23.674Z,0.60
2022-07-26T06:24:17.566Z,0.70
2022-07-26T06:26:44.766Z,0.80
2022-07-26T06:29:11.557Z,0.73
2022-07-26T06:31:38.434Z,0.60
2022-07-26T06:34:05.440Z,0.90
2022-07-26T06:36:32.737Z,0.90
2022-07-26T06:38:59.670Z,0.80
2022-07-26T06:41:26.598Z,0.90
2022-07-26T06:43:53.395Z,0.80
2022-07-26T06:46:22.825Z,0.85
2022-07-26T06:48:52.777Z,0.70
2022-07-26T06:51:23.676Z,0.80
2022-07-26T06:53:50.586Z,0.80
2022-07-26T06:56:18.101Z,0.93
2022-07-26T06:58:45.059Z,0.75
2022-07-26T07:01:12.061Z,0.73
2022-07-26T07:03:39.106Z,0.80
2022-07-26T07:06:06.141Z,0.77
2022-07-26T07:08:33.004Z,0.60
2022-07-26T07:10:59.835Z,0.90
2022-07-26T07:13:28.692Z,0.80
2022-07-26T07:15:55.429Z,0.60
2022-07-26T07:18:22.185Z,0.60
2022-07-26T07:20:48.975Z,0.77
2022-07-26T07:23:15.755Z,0.65
2022-07-26T07:25:44.797Z,0.70
2022-07-26T07:28:11.903Z,0.55
2022-07-26T07:30:38.767Z,0.50
2022-07-26T07:33:09.503Z,0.82
2022-07-26T07:35:50.362Z,0.70
2022-07-26T07:38:17.292Z,0.80
2022-07-26T07:40:44.771Z,0.80
2022-07-26T07:43:11.560Z,1.00
2022-07-26T07:45:38.383Z,0.90
2022-07-26T07:48:05.483Z,0.80
2022-07-26T07:50:32.959Z,0.80
2022-07-26T07:53:02.010Z,0.75
2022-07-26T07:55:40.986Z,0.80
2022-07-26T07:58:11.106Z,1.08
2022-07-26T08:00:38.515Z,1.17
2022-07-26T08:03:05.423Z,0.80
2022-07-26T08:05:32.323Z,0.75
2022-07-26T08:07:59.269Z,1.00
2022-07-26T08:10:31.051Z,0.93
2022-07-26T08:12:57.966Z,0.98
2022-07-26T08:15:24.819Z,0.70
2022-07-26T08:17:54.107Z,0.90
2022-07-26T08:20:23.548Z,0.70
2022-07-26T08:22:52.035Z,0.90
2022-07-26T08:25:19.074Z,0.80
2022-07-26T08:28:02.610Z,0.93
2022-07-26T08:30:30.140Z,1.10
2022-07-26T08:32:57.186Z,1.27
2022-07-26T08:35:24.040Z,1.13
2022-07-26T08:37:50.934Z,1.50
2022-07-26T08:40:17.983Z,1.77
2022-07-26T08:42:52.801Z,1.27
2022-07-26T08:45:23.381Z,1.50
2022-07-26T08:48:14.987Z,1.25
2022-07-26T08:50:37.159Z,1.40
2022-07-26T08:53:06.978Z,1.48
2022-07-26T08:55:50.577Z,1.95
2022-07-26T08:58:20.695Z,1.35
2022-07-26T09:00:47.740Z,1.50
2022-07-26T09:03:26.746Z,1.10
2022-07-26T09:05:53.720Z,1.20
2022-07-26T09:08:28.858Z,1.42
2022-07-26T09:10:56.255Z,1.17
2022-07-26T09:13:26.055Z,0.90
2022-07-26T09:16:11.403Z,1.20
2022-07-26T09:18:38.593Z,1.30
2022-07-26T09:21:05.599Z,1.00
2022-07-26T09:23:42.417Z,1.00
2022-07-26T09:26:09.147Z,1.13
2022-07-26T09:28:35.960Z,1.38
2022-07-26T09:31:12.815Z,1.40
2022-07-26T09:33:49.210Z,2.15
2022-07-26T09:36:16.191Z,1.75
2022-07-26T09:38:48.056Z,2.35
2022-07-26T09:41:21.618Z,2.00
2022-07-26T09:43:53.486Z,1.73
2022-07-26T09:46:21.816Z,1.60
2022-07-26T09:51:40.535Z,1.60
2022-07-26T09:54:08.888Z,1.42
2022-07-26T09:57:02.531Z,1.90
2022-07-26T09:59:29.717Z,2.00
2022-07-26T10:01:58.109Z,1.27
2022-07-26T10:04:25.269Z,1.27
2022-07-26T10:06:52.105Z,1.08
2022-07-26T10:09:18.964Z,0.98
2022-07-26T10:11:56.983Z,1.00
2022-07-26T10:14:37.690Z,1.50
2022-07-26T10:17:35.231Z,0.98
2022-07-26T10:20:17.121Z,1.10
2022-07-26T10:22:47.134Z,1.03
2022-07-26T10:25:20.319Z,1.17
2022-07-26T10:27:47.975Z,1.02
2022-07-26T10:30:22.477Z,1.17
2022-07-26T10:32:59.642Z,1.00
2022-07-26T10:35:32.840Z,0.90
2022-07-26T10:38:09.833Z,1.10
2022-07-26T10:40:37.689Z,0.90
2022-07-26T10:43:38.945Z,0.80
2022-07-26T10:46:20.178Z,0.80
2022-07-26T10:48:59.450Z,0.90
2022-07-26T10:51:32.721Z,0.80
2022-07-26T10:54:11.648Z,0.82
2022-07-26T10:56:38.772Z,1.08
2022-07-26T10:59:05.803Z,1.27
2022-07-26T11:01:42.998Z,1.50
2022-07-26T11:04:19.964Z,1.17
2022-07-26T11:06:47.034Z,0.95
2022-07-26T11:09:13.940Z,1.10
2022-07-26T11:11:46.880Z,1.05
2022-07-26T11:14:16.264Z,1.00
2022-07-26T11:16:44.709Z,1.40
2022-07-26T11:19:22.151Z,1.42
2022-07-26T11:21:59.742Z,1.05
2022-07-26T11:24:27.038Z,1.20
2022-07-26T11:26:53.950Z,1.60
2022-07-26T11:29:38.755Z,1.33
2022-07-26T11:32:20.592Z,1.30
2022-07-26T11:34:59.998Z,1.05
2022-07-26T11:37:27.283Z,1.30
2022-07-26T11:39:54.137Z,1.23
2022-07-26T11:42:22.169Z,1.27
2022-07-26T11:44:49.783Z,1.63
2022-07-26T11:47:19.988Z,1.52
2022-07-26T11:50:01.031Z,1.10
2022-07-26T11:52:34.030Z,1.40
2022-07-26T11:55:00.917Z,1.30
2022-07-26T11:57:31.841Z,1.33
2022-07-26T11:59:59.716Z,1.20
2022-07-26T12:02:26.790Z,1.20
2022-07-26T12:05:16.439Z,1.10
2022-07-26T12:07:54.771Z,1.02
2022-07-26T12:10:24.277Z,1.30
2022-07-26T12:13:05.868Z,1.00
2022-07-26T12:15:44.916Z,1.15
2022-07-26T12:18:11.963Z,1.48
2022-07-26T12:20:38.767Z,1.33
2022-07-26T12:23:06.619Z,1.20
2022-07-26T12:25:37.300Z,1.13
2022-07-26T12:28:11.799Z,1.30
2022-07-26T12:30:38.697Z,1.08
2022-07-26T12:33:05.942Z,1.10
2022-07-26T12:35:42.512Z,1.10
2022-07-26T12:38:12.853Z,1.00
2022-07-26T12:40:43.035Z,1.30
2022-07-26T12:43:10.026Z,1.08
2022-07-26T12:45:38.106Z,1.15
2022-07-26T12:48:10.176Z,1.20
2022-07-26T12:50:37.051Z,1.05
2022-07-26T12:53:05.691Z,0.90
2022-07-26T12:55:32.835Z,1.20
2022-07-26T12:58:00.110Z,0.90
2022-07-26T13:00:27.115Z,0.95
2022-07-26T13:02:56.931Z,1.20
2022-07-26T13:05:23.704Z,0.88
2022-07-26T13:07:52.105Z,0.93
2022-07-26T13:10:35.545Z,1.17
2022-07-26T13:13:03.659Z,1.08
2022-07-26T13:15:36.138Z,1.05
2022-07-26T13:20:36.747Z,1.05
2022-07-26T13:23:03.606Z,1.00
2022-07-26T13:25:33.516Z,1.10
2022-07-26T13:28:06.500Z,0.80
2022-07-26T13:30:33.544Z,0.80
2022-07-26T13:33:02.753Z,1.00
2022-07-26T13:35:29.594Z,0.98
2022-07-26T13:37:56.645Z,0.70
2022-07-26T13:40:27.546Z,0.80
2022-07-26T13:42:57.629Z,0.80
2022-07-26T13:45:24.547Z,0.60
2022-07-26T13:47:56.636Z,1.10
2022-07-26T13:50:23.680Z,0.80
2022-07-26T13:52:50.548Z,0.95
2022-07-26T13:55:17.505Z,0.70
2022-07-26T13:57:55.429Z,0.88
2022-07-26T14:00:27.475Z,0.98
2022-07-26T14:02:55.568Z,0.80
2022-07-26T14:05:22.649Z,0.90
2022-07-26T14:07:49.807Z,0.88
2022-07-26T14:10:17.543Z,0.80
2022-07-26T14:12:44.535Z,0.63
2022-07-26T14:15:16.669Z,0.88
2022-07-26T14:17:47.354Z,0.73
2022-07-26T14:20:14.845Z,0.80
2022-07-26T14:22:41.682Z,0.95
2022-07-26T14:25:08.999Z,0.80
2022-07-26T14:27:35.990Z,1.00
2022-07-26T14:30:03.605Z,0.80
2022-07-26T14:32:30.559Z,0.90
2022-07-26T14:34:57.832Z,1.10
2022-07-26T14:37:42.998Z,0.80
2022-07-26T14:40:13.162Z,0.80
2022-07-26T14:42:40.146Z,0.93
2022-07-26T14:45:08.337Z,1.10
2022-07-26T14:47:35.451Z,0.88
2022-07-26T14:50:07.118Z,0.88
2022-07-26T14:52:44.898Z,0.85
2022-07-26T14:55:12.120Z,0.80
2022-07-26T14:57:40.053Z,0.90
2022-07-26T15:00:09.082Z,1.48
2022-07-26T15:02:38.144Z,0.90
2022-07-26T15:05:05.364Z,0.80
2022-07-26T15:07:32.129Z,0.98
2022-07-26T15:09:59.029Z,0.95
2022-07-26T15:12:25.830Z,0.70
2022-07-26T15:14:52.714Z,0.77
2022-07-26T15:17:20.489Z,0.90
2022-07-26T15:19:47.260Z,0.80
2022-07-26T15:22:14.063Z,0.80
2022-07-26T15:24:40.944Z,0.90
2022-07-26T15:27:07.967Z,0.93
2022-07-26T15:29:35.929Z,0.82
2022-07-26T15:32:03.572Z,0.88
2022-07-26T15:34:30.450Z,0.80
2022-07-26T15:36:57.282Z,1.02
2022-07-26T15:39:24.100Z,1.20
2022-07-26T15:41:51.073Z,1.13
2022-07-26T15:44:19.839Z,0.80
2022-07-26T15:46:49.188Z,0.90
2022-07-26T15:49:16.582Z,0.70
2022-07-26T15:51:43.740Z,0.90
2022-07-26T15:54:12.020Z,0.77
2022-07-26T15:56:39.154Z,0.90
2022-07-26T15:59:09.160Z,0.85
2022-07-26T16:01:36.482Z,0.77
2022-07-26T16:04:04.961Z,0.50
2022-07-26T16:06:35.089Z,0.60
2022-07-26T16:09:16.439Z,0.88
2022-07-26T16:11:44.837Z,0.80
2022-07-26T16:14:11.802Z,0.50
2022-07-26T16:16:38.892Z,0.70
2022-07-26T16:19:05.768Z,0.70
2022-07-26T16:21:32.820Z,0.63
2022-07-26T16:24:04.447Z,0.50
2022-07-26T16:29:00.955Z,0.77
2022-07-26T16:31:27.976Z,0.82
2022-07-26T16:33:55.000Z,0.60
2022-07-26T16:36:21.827Z,0.65
2022-07-26T16:38:48.685Z,0.50
2022-07-26T16:41:15.475Z,0.70
2022-07-26T16:43:42.907Z,0.60
2022-07-26T16:46:10.132Z,0.70
2022-07-26T16:48:37.082Z,0.93
2022-07-26T16:51:04.150Z,0.80
2022-07-26T16:53:31.119Z,0.65
2022-07-26T16:55:58.040Z,0.57
2022-07-26T16:58:25.049Z,0.98
2022-07-26T17:00:52.240Z,0.60
2022-07-26T17:03:19.512Z,0.70
2022-07-26T17:05:50.002Z,0.65
2022-07-26T17:08:16.985Z,0.70
2022-07-26T17:10:44.106Z,0.80
2022-07-26T17:13:14.344Z,0.65
2022-07-26T17:15:41.244Z,0.63
2022-07-26T17:18:08.081Z,0.68
2022-07-26T17:20:35.063Z,0.63
2022-07-26T17:23:01.934Z,1.23
2022-07-26T17:25:29.142Z,0.45
2022-07-26T17:27:56.072Z,0.30
2022-07-26T17:30:23.056Z,0.40
2022-07-26T17:32:50.175Z,0.55
2022-07-26T17:35:17.215Z,0.50
2022-07-26T17:37:44.007Z,0.50
2022-07-26T17:40:12.212Z,0.50
2022-07-26T17:42:38.996Z,0.50
2022-07-26T17:45:06.613Z,0.47
2022-07-26T17:47:33.372Z,0.55
2022-07-26T17:52:54.349Z,0.50
2022-07-26T17:55:23.985Z,0.40
2022-07-26T17:57:51.023Z,0.60
2022-07-26T18:00:19.091Z,0.60
2022-07-26T18:02:46.078Z,0.60
2022-07-26T18:05:12.973Z,0.88
2022-07-26T18:07:40.107Z,0.68
2022-07-26T18:10:07.337Z,0.52
2022-07-26T18:12:34.331Z,0.50
2022-07-26T18:15:01.244Z,0.50
2022-07-26T18:17:28.213Z,0.70
2022-07-26T18:19:54.966Z,0.60
2022-07-26T18:22:23.178Z,0.60
2022-07-26T18:24:50.108Z,0.50
2022-07-26T18:27:17.003Z,0.60
2022-07-26T18:29:43.895Z,0.70
2022-07-26T18:32:10.893Z,0.60
2022-07-26T18:34:37.734Z,0.70
2022-07-26T18:37:05.194Z,0.50
2022-07-26T18:39:32.737Z,0.50
2022-07-26T18:42:07.397Z,1.00
2022-07-26T18:44:37.094Z,0.60
2022-07-26T18:47:05.407Z,0.70
2022-07-26T18:49:35.471Z,0.55
2022-07-26T18:52:08.733Z,0.47
2022-07-26T18:54:36.457Z,0.43
2022-07-26T18:57:03.709Z,0.60
2022-07-26T18:59:31.183Z,0.50
2022-07-26T19:01:59.933Z,0.50
2022-07-26T19:04:27.768Z,0.75
2022-07-26T19:06:54.600Z,0.40
2022-07-26T19:09:21.429Z,0.50
2022-07-26T19:11:48.433Z,0.40
2022-07-26T19:14:15.748Z,0.52
2022-07-26T19:16:42.551Z,0.50
2022-07-26T19:19:10.047Z,0.45
2022-07-26T19:21:37.278Z,0.50
2022-07-26T19:24:04.498Z,0.57
2022-07-26T19:26:34.303Z,0.60
2022-07-26T19:29:04.532Z,0.35
2022-07-26T19:31:32.054Z,0.50
2022-07-26T19:33:59.027Z,0.47
2022-07-26T19:36:26.640Z,0.73
2022-07-26T19:39:00.110Z,0.60
2022-07-26T19:41:27.033Z,0.70
2022-07-26T19:43:53.952Z,0.40
2022-07-26T19:46:21.138Z,0.65
2022-07-26T19:48:52.517Z,0.60
2022-07-26T19:51:19.395Z,0.98
2022-07-26T19:53:46.633Z,0.60
2022-07-26T19:56:13.832Z,0.70
2022-07-26T19:58:40.710Z,0.52
2022-07-26T20:01:07.673Z,0.90
2022-07-26T20:03:34.739Z,0.50
2022-07-26T20:06:01.971Z,0.40
2022-07-26T20:08:28.904Z,0.55
2022-07-26T20:11:00.896Z,1.13
2022-07-26T20:13:30.633Z,0.70
2022-07-26T20:15:59.969Z,0.63
2022-07-26T20:18:28.391Z,0.70
2022-07-26T20:20:56.319Z,0.80
2022-07-26T20:23:23.844Z,1.02
2022-07-26T20:25:53.528Z,1.05
2022-07-26T20:28:23.846Z,0.90
2022-07-26T20:30:51.961Z,0.90
2022-07-26T20:33:21.868Z,1.20
2022-07-26T20:35:54.449Z,0.80
2022-07-26T20:38:22.469Z,1.00
2022-07-26T20:40:49.717Z,0.80
2022-07-26T20:43:17.615Z,0.88
2022-07-26T20:45:49.821Z,0.70
2022-07-26T20:48:19.930Z,0.85
2022-07-26T20:50:46.997Z,0.50
2022-07-26T20:53:13.938Z,0.98
2022-07-26T20:55:40.867Z,1.15
2022-07-26T20:58:10.591Z,0.68
2022-07-26T21:00:37.799Z,0.68
2022-07-26T21:03:04.646Z,0.73
2022-07-26T21:05:32.760Z,0.60
2022-07-26T21:08:00.081Z,0.70
2022-07-26T21:10:29.282Z,0.93
2022-07-26T21:13:01.149Z,0.70
2022-07-26T21:15:32.307Z,0.60
2022-07-26T21:17:59.477Z,0.70
2022-07-26T21:20:27.928Z,0.80
2022-07-26T21:23:03.638Z,0.70
2022-07-26T21:25:40.188Z,1.02
2022-07-26T21:28:09.685Z,0.68
2022-07-26T21:30:36.528Z,0.50
2022-07-26T21:33:03.438Z,0.80
2022-07-26T21:35:33.489Z,0.85
2022-07-26T21:38:03.246Z,0.43
2022-07-26T21:40:35.825Z,0.60
2022-07-26T21:43:03.196Z,0.70
2022-07-26T21:45:33.031Z,0.60
2022-07-26T21:48:03.290Z,0.70
2022-07-26T21:50:30.402Z,0.63
2022-07-26T21:53:03.084Z,0.80
2022-07-26T21:55:32.452Z,0.80
2022-07-26T21:58:02.707Z,0.63
2022-07-26T22:00:29.559Z,0.80
2022-07-26T22:02:56.451Z,0.80
2022-07-26T22:05:35.360Z,1.35
2022-07-26T22:08:02.459Z,0.70
2022-07-26T22:10:29.326Z,0.73
2022-07-26T22:12:56.333Z,0.90
2022-07-26T22:15:23.214Z,0.93
2022-07-26T22:17:55.026Z,0.75
2022-07-26T22:20:22.699Z,0.80
2022-07-26T22:22:49.772Z,0.60
2022-07-26T22:25:16.830Z,0.70
2022-07-26T22:27:43.798Z,0.70
2022-07-26T22:30:12.379Z,0.80
2022-07-26T22:32:39.190Z,0.80
2022-07-26T22:35:06.398Z,0.52
2022-07-26T22:37:33.209Z,0.60
2022-07-26T22:40:00.059Z,0.65
2022-07-26T22:42:26.963Z,0.50
2022-07-26T22:44:53.733Z,0.60
2022-07-26T22:47:20.793Z,0.90
2022-07-26T22:49:47.564Z,0.50
2022-07-26T22:52:14.374Z,0.65
2022-07-26T22:54:42.380Z,0.63
2022-07-26T22:57:09.311Z,0.80
2022-07-26T22:59:37.192Z,0.75
2022-07-26T23:02:04.422Z,0.50
2022-07-26T23:04:31.327Z,0.57
2022-07-26T23:06:58.742Z,0.57
2022-07-26T23:09:26.861Z,0.50
2022-07-26T23:11:53.629Z,0.65
2022-07-26T23:14:20.438Z,0.50
2022-07-26T23:16:47.248Z,0.50
2022-07-26T23:19:14.482Z,0.50
2022-07-26T23:21:41.542Z,0.63
2022-07-26T23:24:08.464Z,0.60
2022-07-26T23:26:35.510Z,0.60
2022-07-26T23:29:02.509Z,0.80
2022-07-26T23:31:29.347Z,0.50
2022-07-26T23:33:56.145Z,0.65
2022-07-26T23:36:27.483Z,0.57
2022-07-26T23:38:55.361Z,0.60
2022-07-26T23:41:22.394Z,0.80
2022-07-26T23:43:49.699Z,0.63
2022-07-26T23:46:16.616Z,0.60
2022-07-26T23:48:43.643Z,0.50
2022-07-26T23:51:10.640Z,0.55
2022-07-26T23:53:37.474Z,0.75
2022-07-26T23:56:04.618Z,0.57
2022-07-26T23:58:31.507Z,0.50
